Time;durP1;ratioP1;P1;durP2;ratioP2;P2;SDS_P1;SDS_P2;PMS_P1;PMS_P2;Temp;Humidity;BMP_temperature;BMP_pressure;BME280_temperature;BME280_humidity;BME280_pressure;Samples;Min_cycle;Max_cycle;Signal;HPM_P1;HPM_P2
2021/05/18 00:00:52;;;;;;;;;;;;;;;10.40;77.92;94386.36;1685050;85;20163;-69
2021/05/18 00:03:18;;;;;;;;;;;;;;;10.32;78.36;94391.06;1684957;85;20188;-69
2021/05/18 00:05:48;;;;;;;;;;;;;;;10.29;76.33;94394.28;1684984;85;20488;-69
2021/05/18 00:08:16;;;;;;;;;;;;;;;10.27;76.13;94390.80;1685064;85;20151;-69
2021/05/18 00:13:32;;;;;;;;;;;;;;;10.23;78.29;94387.87;1684946;85;20543;-69
2021/05/18 00:16:00;;;;;;;;;;;;;;;10.21;80.01;94395.00;1684933;85;20171;-69
2021/05/18 00:18:27;;;;;;;;;;;;;;;10.16;80.32;94396.48;1684594;85;20230;-69
2021/05/18 00:20:54;;;;;;;;;;;;;;;10.11;76.72;94386.09;1685184;85;20559;-69
2021/05/18 00:23:21;;;;;;;;;;;;;;;10.11;77.95;94386.09;1685263;85;20167;-69
2021/05/18 00:25:47;;;;;;;;;;;;;;;10.12;78.18;94389.12;1684952;85;20151;-69
2021/05/18 00:28:13;;;;;;;;;;;;;;;10.13;78.88;94390.86;1685065;85;20200;-69
2021/05/18 00:30:43;;;;;;;;;;;;;;;10.06;79.96;94391.13;1692634;84;20163;-69
2021/05/18 00:33:15;;;;;;;;;;;;;;;10.01;80.23;94382.53;1694710;85;20130;-69
2021/05/18 00:35:42;;;;;;;;;;;;;;;9.90;76.56;94386.41;1694671;85;20479;-69
2021/05/18 00:38:09;;;;;;;;;;;;;;;9.90;77.15;94384.21;1694958;85;20226;-69
2021/05/18 00:40:36;;;;;;;;;;;;;;;9.94;78.29;94390.64;1694574;85;20135;-69
2021/05/18 00:43:02;;;;;;;;;;;;;;;9.97;79.68;94387.89;1695072;85;20170;-69
2021/05/18 00:45:34;;;;;;;;;;;;;;;9.97;79.33;94391.84;1694936;85;20488;-69
2021/05/18 00:48:02;;;;;;;;;;;;;;;9.96;79.48;94399.36;1694813;85;20183;-69
2021/05/18 00:50:29;;;;;;;;;;;;;;;9.93;78.08;94394.20;1694832;85;20158;-69
2021/05/18 00:52:55;;;;;;;;;;;;;;;9.93;76.79;94390.72;1694845;85;20151;-69
2021/05/18 00:55:36;;;;;;;;;;;;;;;9.89;77.07;94400.95;1673346;85;20588;-69
2021/05/18 01:00:37;;;;;;;;;;;;;;;9.96;77.34;94396.72;1694874;85;20182;-69
2021/05/18 01:03:04;;;;;;;;;;;;;;;10.02;77.72;94397.42;1694937;85;20169;-69
2021/05/18 01:08:16;;;;;;;;;;;;;;;10.13;79.47;94401.83;1694737;85;20203;-69
2021/05/18 01:10:44;;;;;;;;;;;;;;;10.09;79.65;94398.46;1694780;85;20177;-69
2021/05/18 01:13:11;;;;;;;;;;;;;;;10.06;79.90;94408.27;1694821;85;20250;-69
2021/05/18 01:15:42;;;;;;;;;;;;;;;10.06;80.20;94406.95;1694574;84;20507;-69
2021/05/18 01:18:06;;;;;;;;;;;;;;;10.04;79.45;94399.09;1694473;85;20142;-69
2021/05/18 01:20:38;;;;;;;;;;;;;;;10.13;80.04;94398.77;1694839;85;20162;-69
2021/05/18 01:23:05;;;;;;;;;;;;;;;10.15;79.14;94394.30;1694651;85;20182;-69
2021/05/18 01:25:32;;;;;;;;;;;;;;;10.17;78.95;94392.91;1694922;85;20143;-69
2021/05/18 01:27:58;;;;;;;;;;;;;;;10.25;79.47;94397.44;1694787;84;20536;-69
2021/05/18 01:30:25;;;;;;;;;;;;;;;10.33;79.61;94402.03;1694600;84;20139;-69
2021/05/18 01:32:51;;;;;;;;;;;;;;;10.28;78.50;94397.81;1694762;85;20178;-69
2021/05/18 01:35:19;;;;;;;;;;;;;;;10.28;79.07;94403.98;1694636;85;20167;-69
2021/05/18 01:37:46;;;;;;;;;;;;;;;10.31;79.42;94399.05;1694692;84;20158;-69
2021/05/18 01:42:51;;;;;;;;;;;;;;;10.27;78.74;94399.56;1694607;84;20166;-69
2021/05/18 01:45:29;;;;;;;;;;;;;;;10.27;78.82;94395.61;1694724;85;20482;-69
2021/05/18 01:48:03;;;;;;;;;;;;;;;10.29;78.51;94400.41;1694865;84;20187;-69
2021/05/18 01:50:31;;;;;;;;;;;;;;;10.31;79.00;94403.00;1692670;85;20518;-69
2021/05/18 01:52:58;;;;;;;;;;;;;;;10.22;78.01;94400.19;1694795;85;20171;-69
2021/05/18 01:55:31;;;;;;;;;;;;;;;10.22;78.95;94402.83;1694681;85;20174;-69
2021/05/18 01:57:57;;;;;;;;;;;;;;;10.16;78.46;94396.02;1694495;85;20154;-69
2021/05/18 02:00:28;;;;;;;;;;;;;;;10.04;80.78;94398.23;1694208;85;20170;-69
2021/05/18 02:02:56;;;;;;;;;;;;;;;9.99;81.46;94395.75;1694871;85;20186;-69
2021/05/18 02:05:30;;;;;;;;;;;;;;;9.93;81.78;94399.47;1694052;85;20466;-69
2021/05/18 02:07:59;;;;;;;;;;;;;;;9.92;81.39;94400.37;1691065;85;20150;-69
2021/05/18 02:10:26;;;;;;;;;;;;;;;9.90;78.57;94401.33;1694684;85;20488;-69
2021/05/18 02:12:55;;;;;;;;;;;;;;;9.89;80.57;94401.80;1692735;85;20507;-69
2021/05/18 02:15:39;;;;;;;;;;;;;;;9.84;79.25;94391.87;1694742;85;20182;-69
2021/05/18 02:18:23;;;;;;;;;;;;;;;9.90;80.46;94403.97;1693340;85;20190;-69
2021/05/18 02:20:40;;;;;;;;;;;;;;;9.90;78.99;94403.54;1672739;85;20134;-69
2021/05/18 02:25:54;;;;;;;;;;;;;;;9.90;79.69;94394.32;1694591;85;20539;-69
2021/05/18 02:28:25;;;;;;;;;;;;;;;9.94;79.84;94402.96;1693631;85;20490;-69
2021/05/18 02:30:52;;;;;;;;;;;;;;;9.91;78.05;94401.76;1692110;84;20230;-69
2021/05/18 02:33:23;;;;;;;;;;;;;;;9.95;78.84;94398.97;1687907;85;20242;-69
2021/05/18 02:35:50;;;;;;;;;;;;;;;9.94;78.41;94400.33;1690429;85;20232;-69
2021/05/18 02:38:17;;;;;;;;;;;;;;;9.93;79.63;94402.57;1690533;85;20226;-69
2021/05/18 02:40:45;;;;;;;;;;;;;;;9.91;79.37;94410.52;1690229;85;20206;-69
2021/05/18 02:43:17;;;;;;;;;;;;;;;9.91;79.91;94414.94;1690405;85;20579;-69
2021/05/18 02:51:05;;;;;;;;;;;;;;;9.99;80.62;94418.15;1663003;85;20175;-69
2021/05/18 02:53:52;;;;;;;;;;;;;;;10.05;80.92;94419.23;1690459;85;20242;-69
2021/05/18 02:56:26;;;;;;;;;;;;;;;10.06;81.19;94427.56;1690518;85;20476;-69
2021/05/18 02:59:10;;;;;;;;;;;;;;;10.03;79.68;94423.73;1689732;85;20187;-69
2021/05/18 03:01:28;;;;;;;;;;;;;;;10.02;79.83;94418.04;1688731;85;20150;-69
2021/05/18 03:03:55;;;;;;;;;;;;;;;10.05;78.08;94419.70;1690427;85;20143;-68
2021/05/18 03:06:21;;;;;;;;;;;;;;;10.11;78.88;94415.55;1690491;85;20494;-69
2021/05/18 03:08:49;;;;;;;;;;;;;;;10.12;80.00;94425.16;1690280;85;20147;-69
2021/05/18 03:11:15;;;;;;;;;;;;;;;10.11;79.39;94420.36;1690506;85;20187;-69
2021/05/18 03:13:42;;;;;;;;;;;;;;;10.17;79.08;94418.81;1690437;85;20560;-69
2021/05/18 03:16:08;;;;;;;;;;;;;;;10.18;79.61;94423.19;1690723;85;20166;-69
2021/05/18 03:18:35;;;;;;;;;;;;;;;10.07;78.02;94412.61;1690628;85;20179;-69
2021/05/18 03:21:03;;;;;;;;;;;;;;;10.08;78.30;94413.00;1690206;85;20179;-69
2021/05/18 03:23:29;;;;;;;;;;;;;;;9.99;78.20;94421.25;1690504;85;20179;-69
2021/05/18 03:25:56;;;;;;;;;;;;;;;10.05;79.47;94413.11;1690460;85;20171;-68
2021/05/18 03:28:22;;;;;;;;;;;;;;;10.02;78.70;94411.91;1690230;85;20483;-69
2021/05/18 03:31:13;;;;;;;;;;;;;;;10.05;78.38;94410.48;1687934;84;20139;-69
2021/05/18 03:36:09;;;;;;;;;;;;;;;9.96;77.22;94416.48;1684639;85;20163;-69
2021/05/18 03:38:40;;;;;;;;;;;;;;;9.96;79.74;94417.80;1684859;85;20231;-69
2021/05/18 03:41:12;;;;;;;;;;;;;;;9.92;79.94;94421.91;1684689;85;20175;-69
2021/05/18 03:44:01;;;;;;;;;;;;;;;9.99;80.37;94423.88;1684387;85;20246;-70
2021/05/18 03:52:17;;;;;;;;;;;;;;;10.06;79.95;94422.76;1671800;85;20179;-75
2021/05/18 04:10:57;;;;;;;;;;;;;;;10.08;75.14;94418.27;1684779;84;20190;-73
2021/05/18 04:16:52;;;;;;;;;;;;;;;10.09;75.66;94427.91;1680727;85;20159;-73
2021/05/18 04:18:14;;;;;;;;;;;;;;;10.14;77.67;94433.88;1673724;85;20175;-73
2021/05/18 04:21:03;;;;;;;;;;;;;;;10.15;76.64;94431.20;1684032;85;20186;-73
2021/05/18 04:25:53;;;;;;;;;;;;;;;10.13;77.79;94429.51;1684729;85;20171;-73
2021/05/18 04:52:23;;;;;;;;;;;;;;;10.17;77.48;94428.03;1690520;85;20500;-73
2021/05/18 05:00:39;;;;;;;;;;;;;;;10.43;76.54;94427.58;1690620;85;20135;-73
2021/05/18 05:08:14;;;;;;;;;;;;;;;10.48;74.93;94424.34;1690717;85;20155;-80
2021/05/18 05:15:43;;;;;;;;;;;;;;;10.68;73.33;94423.57;1690593;85;20238;-75
2021/05/18 05:18:13;;;;;;;;;;;;;;;10.59;73.00;94427.89;1690584;85;20163;-69
2021/05/18 05:20:39;;;;;;;;;;;;;;;10.68;74.33;94418.76;1690292;85;20142;-78
2021/05/18 05:23:06;;;;;;;;;;;;;;;10.72;73.02;94419.91;1690568;85;20163;-66
2021/05/18 05:25:32;;;;;;;;;;;;;;;10.76;72.05;94420.20;1690591;85;20171;-70
2021/05/18 05:27:59;;;;;;;;;;;;;;;10.78;73.39;94430.68;1690621;85;20155;-69
2021/05/18 05:30:25;;;;;;;;;;;;;;;10.75;71.95;94430.34;1690284;84;20170;-68
2021/05/18 05:32:51;;;;;;;;;;;;;;;10.61;72.01;94427.38;1684900;84;20174;-68
2021/05/18 05:35:17;;;;;;;;;;;;;;;10.58;72.05;94428.36;1684641;85;20159;-66
2021/05/18 05:37:44;;;;;;;;;;;;;;;10.40;72.27;94430.33;1684997;85;20191;-74
2021/05/18 05:40:11;;;;;;;;;;;;;;;10.37;73.14;94429.98;1684892;85;20495;-68
2021/05/18 05:42:37;;;;;;;;;;;;;;;10.32;72.30;94433.71;1684804;85;20547;-70
2021/05/18 05:45:05;;;;;;;;;;;;;;;10.29;72.77;94429.41;1684910;85;20147;-67
2021/05/18 05:47:31;;;;;;;;;;;;;;;10.29;73.71;94430.73;1684754;85;20266;-68
2021/05/18 05:49:57;;;;;;;;;;;;;;;10.31;72.94;94435.50;1688908;84;20158;-73
2021/05/18 05:52:24;;;;;;;;;;;;;;;10.38;72.05;94436.11;1701064;84;20233;-75
2021/05/18 05:54:51;;;;;;;;;;;;;;;10.49;72.95;94435.75;1693891;83;20357;-72
2021/05/18 05:57:19;;;;;;;;;;;;;;;10.56;72.73;94435.92;1686777;84;20169;-73
2021/05/18 05:59:46;;;;;;;;;;;;;;;10.55;72.86;94436.82;1673016;86;20165;-71
2021/05/18 06:02:13;;;;;;;;;;;;;;;10.49;72.56;94428.69;1672558;86;20155;-68
2021/05/18 06:04:39;;;;;;;;;;;;;;;10.54;72.70;94433.80;1672871;86;20559;-70
2021/05/18 06:07:06;;;;;;;;;;;;;;;10.57;72.91;94432.36;1672737;86;20179;-66
2021/05/18 06:09:34;;;;;;;;;;;;;;;10.53;72.88;94442.17;1672894;86;20163;-68
2021/05/18 06:14:48;;;;;;;;;;;;;;;10.67;74.82;94446.92;1693525;84;20154;-69
2021/05/18 06:49:57;;;;;;;;;;;;;;;10.93;72.41;94476.28;1672878;86;20156;-70
2021/05/18 06:52:16;;;;;;;;;;;;;;;10.81;72.35;94476.30;1671167;86;20172;-67
2021/05/18 06:54:42;;;;;;;;;;;;;;;10.67;73.11;94474.63;1672992;86;20149;-66
2021/05/18 06:57:08;;;;;;;;;;;;;;;10.63;73.99;94480.06;1672741;86;20145;-66
2021/05/18 07:02:19;;;;;;;;;;;;;;;10.71;73.75;94472.28;1672886;86;20160;-68
2021/05/18 07:04:47;;;;;;;;;;;;;;;10.70;73.24;94477.61;1672782;86;20152;-67
2021/05/18 07:07:17;;;;;;;;;;;;;;;10.74;74.81;94470.84;1686429;85;20174;-66
2021/05/18 07:09:41;;;;;;;;;;;;;;;10.72;74.14;94479.27;1698204;85;20198;-68
2021/05/18 07:12:08;;;;;;;;;;;;;;;10.72;74.80;94488.50;1697971;85;20192;-63
2021/05/18 07:14:35;;;;;;;;;;;;;;;10.74;75.68;94485.36;1698148;85;20190;-65
2021/05/18 07:17:02;;;;;;;;;;;;;;;10.84;79.11;94479.28;1698172;85;20538;-66
2021/05/18 07:19:28;;;;;;;;;;;;;;;10.86;76.04;94485.80;1698095;85;20181;-65
2021/05/18 07:21:55;;;;;;;;;;;;;;;10.65;75.53;94476.45;1697944;85;20170;-65
2021/05/18 07:24:26;;;;;;;;;;;;;;;10.75;76.37;94496.30;1670628;85;20173;-66
2021/05/18 07:26:50;;;;;;;;;;;;;;;10.67;76.76;94493.55;1697452;85;20170;-64
2021/05/18 07:29:17;;;;;;;;;;;;;;;10.80;78.24;94494.81;1698173;85;20178;-68
2021/05/18 07:31:44;;;;;;;;;;;;;;;11.03;79.92;94502.72;1706965;83;20204;-63
2021/05/18 07:34:10;;;;;;;;;;;;;;;11.13;78.45;94502.38;1727066;83;20140;-66
2021/05/18 07:36:37;;;;;;;;;;;;;;;11.21;78.60;94501.19;1727028;83;20490;-61
2021/05/18 07:39:04;;;;;;;;;;;;;;;11.24;78.66;94509.45;1727233;83;20152;-69
2021/05/18 07:41:32;;;;;;;;;;;;;;;11.29;77.21;94498.68;1727057;83;20160;-66
2021/05/18 07:44:03;;;;;;;;;;;;;;;11.45;77.35;94508.59;1727108;83;20477;-65
2021/05/18 07:46:29;;;;;;;;;;;;;;;11.52;77.57;94512.34;1727233;83;20216;-66
2021/05/18 07:51:53;;;;;;;;;;;;;;;11.48;75.63;94516.86;1726715;83;20181;-64
2021/05/18 07:59:15;;;;;;;;;;;;;;;11.48;76.03;94523.47;1727220;83;20184;-64
2021/05/18 08:07:18;;;;;;;;;;;;;;;11.33;77.20;94535.48;1686709;83;20160;-64
2021/05/18 08:09:51;;;;;;;;;;;;;;;11.34;77.26;94539.86;1731426;83;20180;-65
2021/05/18 08:12:13;;;;;;;;;;;;;;;11.37;75.77;94538.42;1730187;83;20159;-65
2021/05/18 08:14:48;;;;;;;;;;;;;;;11.46;76.17;94541.14;1731779;83;20144;-65
2021/05/18 08:17:16;;;;;;;;;;;;;;;11.57;76.46;94548.21;1731394;83;20167;-62
2021/05/18 10:36:31;;;;;;;;;;;;;;;10.72;70.74;94770.80;1714660;83;20161;-63
2021/05/18 10:39:25;;;;;;;;;;;;;;;10.80;73.02;94767.45;1714936;83;20163;-63
2021/05/18 10:41:53;;;;;;;;;;;;;;;10.70;71.94;94784.96;1714773;84;20189;-63
2021/05/18 10:44:20;;;;;;;;;;;;;;;10.75;73.81;94789.63;1714894;84;20224;-63
2021/05/18 10:46:57;;;;;;;;;;;;;;;10.83;71.08;94791.12;1686335;84;20160;-63
2021/05/18 10:49:33;;;;;;;;;;;;;;;11.05;73.49;94797.01;1714988;83;20168;-63
2021/05/18 10:52:07;;;;;;;;;;;;;;;11.22;73.67;94789.39;1714551;83;20173;-63
2021/05/18 10:54:41;;;;;;;;;;;;;;;11.26;73.42;94797.63;1714795;83;20157;-63
2021/05/18 10:57:17;;;;;;;;;;;;;;;11.28;71.69;94786.13;1714914;84;20152;-63
2021/05/18 10:59:50;;;;;;;;;;;;;;;11.25;70.72;94804.27;1715176;84;20196;-63
2021/05/18 11:02:19;;;;;;;;;;;;;;;11.15;72.36;94797.11;1714898;84;20144;-63
2021/05/18 11:04:54;;;;;;;;;;;;;;;11.14;71.57;94796.71;1714782;83;20141;-63
2021/05/18 11:07:24;;;;;;;;;;;;;;;11.24;75.25;94799.45;1697968;84;20230;-63
2021/05/18 11:09:50;;;;;;;;;;;;;;;11.35;73.27;94800.86;1680467;85;20468;-63
2021/05/18 11:12:20;;;;;;;;;;;;;;;11.36;73.54;94790.22;1659286;85;20151;-63
2021/05/18 11:14:53;;;;;;;;;;;;;;;11.61;74.53;94789.37;1686047;85;20218;-63
2021/05/18 11:17:23;;;;;;;;;;;;;;;11.55;71.52;94798.38;1680255;85;20147;-63
2021/05/18 11:20:09;;;;;;;;;;;;;;;11.29;71.65;94796.66;1686393;85;20166;-63
2021/05/18 11:25:50;;;;;;;;;;;;;;;11.34;75.68;94801.75;1686153;85;20175;-63
2021/05/18 11:28:33;;;;;;;;;;;;;;;11.16;75.13;94808.09;1684347;85;20158;-63
2021/05/18 11:31:03;;;;;;;;;;;;;;;10.94;77.18;94818.95;1686216;84;20154;-63
2021/05/18 11:33:34;;;;;;;;;;;;;;;10.85;75.03;94817.45;1690150;84;20142;-63
2021/05/18 11:36:33;;;;;;;;;;;;;;;10.77;74.96;94822.97;1694706;85;20166;-63
2021/05/18 11:39:02;;;;;;;;;;;;;;;10.74;75.47;94822.22;1693743;85;20538;-63
2021/05/18 11:41:30;;;;;;;;;;;;;;;10.66;76.89;94824.21;1694442;84;20171;-63
2021/05/18 11:43:59;;;;;;;;;;;;;;;10.65;75.14;94827.31;1694700;84;20182;-63
2021/05/18 11:46:27;;;;;;;;;;;;;;;10.70;76.37;94832.45;1694751;85;20143;-63
2021/05/18 11:49:00;;;;;;;;;;;;;;;10.81;76.14;94836.95;1694902;85;20174;-64
2021/05/18 11:51:32;;;;;;;;;;;;;;;10.87;75.50;94827.51;1694778;85;20170;-63
2021/05/18 11:54:06;;;;;;;;;;;;;;;10.89;74.97;94829.65;1694542;85;20146;-63
2021/05/18 11:56:35;;;;;;;;;;;;;;;11.01;73.95;94828.37;1694691;85;20180;-63
2021/05/18 11:59:13;;;;;;;;;;;;;;;10.91;75.05;94838.81;1694810;85;20222;-63
2021/05/18 12:02:01;;;;;;;;;;;;;;;11.04;76.25;94838.85;1672787;85;20508;-63
2021/05/18 12:04:29;;;;;;;;;;;;;;;11.10;74.56;94846.56;1694752;84;20246;-63
2021/05/18 12:06:58;;;;;;;;;;;;;;;11.24;76.08;94855.36;1709736;83;20176;-63
2021/05/18 12:09:25;;;;;;;;;;;;;;;11.23;72.26;94862.39;1700881;83;20511;-63
2021/05/18 12:11:56;;;;;;;;;;;;;;;10.80;71.94;94862.45;1731410;83;20155;-63
2021/05/18 12:14:28;;;;;;;;;;;;;;;10.90;73.47;94860.86;1731571;83;20208;-63
2021/05/18 12:16:51;;;;;;;;;;;;;;;10.94;74.91;94865.99;1730486;83;20220;-63
2021/05/18 12:19:19;;;;;;;;;;;;;;;11.02;75.53;94871.03;1731433;83;20216;-63
2021/05/18 12:21:48;;;;;;;;;;;;;;;11.08;73.93;94876.56;1731558;83;20172;-63
2021/05/18 12:24:21;;;;;;;;;;;;;;;11.10;73.47;94876.92;1731317;83;20488;-63
2021/05/18 12:26:54;;;;;;;;;;;;;;;11.04;73.37;94880.63;1731187;83;20168;-63
2021/05/18 12:29:45;;;;;;;;;;;;;;;11.10;75.04;94882.66;1731480;83;20216;-63
2021/05/18 12:32:25;;;;;;;;;;;;;;;11.13;73.97;94882.55;1730171;83;20520;-63
2021/05/18 12:35:01;;;;;;;;;;;;;;;11.15;74.80;94884.70;1727788;83;20169;-63
2021/05/18 12:37:33;;;;;;;;;;;;;;;11.15;74.01;94890.83;1727907;83;20164;-63
2021/05/18 12:40:03;;;;;;;;;;;;;;;11.15;74.07;94895.26;1727271;83;20164;-63
2021/05/18 12:42:30;;;;;;;;;;;;;;;11.19;74.87;94887.66;1727749;83;20172;-63
2021/05/18 12:45:02;;;;;;;;;;;;;;;11.36;75.73;94890.58;1727874;83;20167;-63
2021/05/18 12:47:34;;;;;;;;;;;;;;;11.32;73.41;94894.27;1727827;83;20168;-63
2021/05/18 12:50:05;;;;;;;;;;;;;;;11.33;73.63;94895.12;1727568;83;20151;-63
2021/05/18 12:52:37;;;;;;;;;;;;;;;11.16;74.08;94897.86;1727819;83;20544;-63
2021/05/18 12:55:13;;;;;;;;;;;;;;;10.96;73.24;94901.56;1727146;83;20160;-63
2021/05/18 12:57:52;;;;;;;;;;;;;;;10.70;75.36;94908.50;1727830;83;20160;-63
2021/05/18 13:00:27;;;;;;;;;;;;;;;10.79;76.42;94920.57;1727880;83;20497;-63
2021/05/18 13:02:54;;;;;;;;;;;;;;;10.83;76.35;94911.63;1728014;83;20156;-63
2021/05/18 13:05:28;;;;;;;;;;;;;;;10.75;75.39;94920.25;1727872;83;20164;-63
2021/05/18 13:08:10;;;;;;;;;;;;;;;10.65;76.49;94923.61;1676009;84;20175;-63
2021/05/18 13:13:20;;;;;;;;;;;;;;;10.73;77.34;94921.59;1698413;85;20134;-63
2021/05/18 13:15:47;;;;;;;;;;;;;;;10.87;77.38;94926.94;1697461;85;20221;-63
2021/05/18 13:18:15;;;;;;;;;;;;;;;10.92;75.70;94920.60;1698318;85;20162;-63
2021/05/18 13:20:55;;;;;;;;;;;;;;;10.95;77.14;94920.95;1698296;85;20257;-63
2021/05/18 13:28:36;;;;;;;;;;;;;;;10.79;74.77;94931.98;1698250;85;20134;-63
2021/05/18 13:31:03;;;;;;;;;;;;;;;10.52;74.37;94936.30;1698118;85;20195;-63
2021/05/18 13:33:32;;;;;;;;;;;;;;;10.58;75.30;94938.77;1696517;85;20523;-63
2021/05/18 13:36:00;;;;;;;;;;;;;;;10.50;75.80;94927.55;1666925;86;20195;-62
2021/05/18 13:38:26;;;;;;;;;;;;;;;10.52;76.56;94942.89;1694330;85;20182;-63
2021/05/18 13:40:53;;;;;;;;;;;;;;;10.54;77.20;94947.67;1697522;85;20164;-63
2021/05/18 13:43:20;;;;;;;;;;;;;;;10.53;76.07;94945.95;1679396;85;20183;-63
2021/05/18 13:45:46;;;;;;;;;;;;;;;10.58;76.85;94951.96;1694467;85;20155;-63
2021/05/18 13:48:12;;;;;;;;;;;;;;;10.75;76.94;94954.08;1697742;85;20170;-63
2021/05/18 13:50:38;;;;;;;;;;;;;;;10.97;77.92;94954.78;1679399;85;20139;-63
2021/05/18 13:53:06;;;;;;;;;;;;;;;11.20;76.16;94954.92;1694373;85;20146;-63
2021/05/18 13:55:34;;;;;;;;;;;;;;;11.23;75.52;94957.46;1666980;86;20170;-63
2021/05/18 13:58:01;;;;;;;;;;;;;;;11.37;74.48;94957.51;1649444;86;20135;-63
2021/05/18 14:00:28;;;;;;;;;;;;;;;11.39;74.70;94952.58;1694447;85;20142;-63
2021/05/18 14:02:54;;;;;;;;;;;;;;;11.36;74.68;94953.97;1697504;85;20473;-63
2021/05/18 14:05:27;;;;;;;;;;;;;;;11.32;74.06;94953.69;1679549;85;20200;-63
2021/05/18 14:08:28;;;;;;;;;;;;;;;11.22;75.50;94954.42;1696435;85;20154;-63
2021/05/18 14:10:57;;;;;;;;;;;;;;;11.16;74.94;94955.95;1696861;85;20178;-63
2021/05/18 14:13:25;;;;;;;;;;;;;;;11.10;75.37;94958.77;1696629;85;20205;-63
2021/05/18 14:15:52;;;;;;;;;;;;;;;10.97;75.00;94965.34;1696765;85;20193;-63
2021/05/18 14:18:18;;;;;;;;;;;;;;;10.88;75.60;94969.56;1696585;85;20178;-63
2021/05/18 14:20:44;;;;;;;;;;;;;;;10.80;76.18;94975.92;1696796;85;20209;-63
2021/05/18 14:23:11;;;;;;;;;;;;;;;10.70;75.77;94969.65;1696835;85;20225;-63
2021/05/18 14:25:39;;;;;;;;;;;;;;;10.48;75.08;94974.66;1696634;85;20159;-63
2021/05/18 14:28:06;;;;;;;;;;;;;;;10.23;75.70;94974.02;1696654;85;20158;-63
2021/05/18 14:30:33;;;;;;;;;;;;;;;10.18;77.26;94983.36;1696797;85;20182;-63
2021/05/18 14:32:59;;;;;;;;;;;;;;;10.19;78.19;94992.98;1696612;85;20146;-63
2021/05/18 14:35:28;;;;;;;;;;;;;;;10.21;77.47;94982.88;1721242;83;20191;-63
2021/05/18 14:38:04;;;;;;;;;;;;;;;10.37;76.99;94984.20;1721904;83;20144;-63
2021/05/18 14:45:58;;;;;;;;;;;;;;;10.35;75.56;94989.50;1721868;83;20183;-63
2021/05/18 14:53:53;;;;;;;;;;;;;;;10.64;75.49;94973.80;1721543;83;20203;-63
2021/05/18 14:56:10;;;;;;;;;;;;;;;10.78;75.67;94983.47;1719882;83;20462;-63
2021/05/18 14:58:37;;;;;;;;;;;;;;;10.79;76.33;94980.80;1721789;83;20132;-63
2021/05/18 15:01:04;;;;;;;;;;;;;;;10.81;76.70;94980.31;1721796;83;20196;-63
2021/05/18 15:03:32;;;;;;;;;;;;;;;10.77;76.56;94985.72;1721510;83;20160;-63
2021/05/18 15:05:59;;;;;;;;;;;;;;;10.78;77.20;94987.44;1721314;83;20160;-63
2021/05/18 15:08:26;;;;;;;;;;;;;;;10.67;77.59;94996.13;1694727;85;20159;-63
2021/05/18 15:10:57;;;;;;;;;;;;;;;10.54;78.25;94992.97;1694514;85;20182;-62
2021/05/18 15:13:21;;;;;;;;;;;;;;;10.52;78.79;94990.37;1694757;85;20154;-63
2021/05/18 15:15:47;;;;;;;;;;;;;;;10.52;76.83;94989.05;1694733;84;20229;-63
2021/05/18 15:18:14;;;;;;;;;;;;;;;10.48;76.18;94987.42;1694552;85;20170;-63
2021/05/18 15:20:40;;;;;;;;;;;;;;;10.37;77.20;94992.97;1694697;85;20138;-62
2021/05/18 15:23:06;;;;;;;;;;;;;;;10.48;77.88;94995.34;1694841;85;20246;-63
2021/05/18 15:25:33;;;;;;;;;;;;;;;10.59;78.48;94990.61;1694520;84;20160;-63
2021/05/18 15:27:59;;;;;;;;;;;;;;;10.69;78.74;94991.68;1694689;85;20182;-63
2021/05/18 15:30:25;;;;;;;;;;;;;;;10.76;78.54;94992.78;1694530;84;20146;-63
2021/05/18 15:32:52;;;;;;;;;;;;;;;10.80;78.81;94994.86;1694698;84;20158;-63
2021/05/18 15:35:18;;;;;;;;;;;;;;;10.70;77.94;95000.85;1686596;84;20183;-63
2021/05/18 15:37:45;;;;;;;;;;;;;;;10.67;78.91;95002.72;1684560;85;20178;-63
2021/05/18 15:40:13;;;;;;;;;;;;;;;10.61;79.36;95003.31;1684774;85;20484;-63
2021/05/18 15:42:40;;;;;;;;;;;;;;;10.63;79.18;95011.16;1657670;85;20159;-63
2021/05/18 15:45:07;;;;;;;;;;;;;;;10.62;79.02;95009.44;1684739;85;20162;-62
2021/05/18 15:47:34;;;;;;;;;;;;;;;10.66;79.14;95015.06;1684692;85;20187;-63
2021/05/18 15:50:00;;;;;;;;;;;;;;;10.66;78.31;95019.02;1684814;85;20581;-63
2021/05/18 15:52:26;;;;;;;;;;;;;;;10.55;77.22;95010.52;1684577;85;20154;-63
2021/05/18 15:54:53;;;;;;;;;;;;;;;10.40;76.69;95007.39;1684575;85;20167;-63
2021/05/18 15:57:19;;;;;;;;;;;;;;;10.29;77.41;95001.55;1684702;85;20146;-63
2021/05/18 15:59:49;;;;;;;;;;;;;;;10.38;77.82;95006.59;1684491;84;20191;-63
2021/05/18 16:02:13;;;;;;;;;;;;;;;10.43;77.92;95007.75;1684539;85;20247;-63
2021/05/18 16:04:40;;;;;;;;;;;;;;;10.43;78.15;95016.13;1684933;84;20198;-63
2021/05/18 16:07:11;;;;;;;;;;;;;;;10.36;78.57;95019.41;1695145;84;20169;-63
2021/05/18 16:09:37;;;;;;;;;;;;;;;10.29;79.63;95027.92;1706051;84;20233;-63
2021/05/18 16:12:06;;;;;;;;;;;;;;;10.26;79.31;95034.56;1706516;84;20149;-63
2021/05/18 16:14:34;;;;;;;;;;;;;;;10.18;79.45;95028.64;1706364;84;20245;-63
2021/05/18 16:17:00;;;;;;;;;;;;;;;10.03;78.00;95031.22;1706449;84;20161;-63
2021/05/18 16:19:27;;;;;;;;;;;;;;;10.03;78.96;95024.63;1706094;84;20150;-63
2021/05/18 16:21:53;;;;;;;;;;;;;;;9.97;78.75;95030.89;1706374;84;20154;-63
2021/05/18 16:24:21;;;;;;;;;;;;;;;9.97;78.92;95026.94;1706246;84;20221;-63
2021/05/18 16:26:49;;;;;;;;;;;;;;;9.96;79.10;95035.77;1706322;84;20149;-63
2021/05/18 16:29:15;;;;;;;;;;;;;;;9.99;79.45;95034.81;1706330;84;20558;-63
2021/05/18 16:31:41;;;;;;;;;;;;;;;10.04;78.38;95029.44;1706462;84;20158;-63
2021/05/18 16:34:07;;;;;;;;;;;;;;;10.04;78.09;95034.70;1711462;83;20310;-63
2021/05/18 16:36:34;;;;;;;;;;;;;;;10.02;78.25;95041.32;1731575;83;20568;-63
2021/05/18 16:39:01;;;;;;;;;;;;;;;10.07;79.54;95047.34;1731617;83;20168;-62
2021/05/18 16:41:28;;;;;;;;;;;;;;;10.15;79.06;95040.55;1731349;83;20164;-63
2021/05/18 16:43:54;;;;;;;;;;;;;;;10.27;79.19;95042.88;1731549;83;20211;-62
2021/05/18 16:46:20;;;;;;;;;;;;;;;10.27;78.29;95045.52;1731796;83;20156;-63
2021/05/18 16:48:47;;;;;;;;;;;;;;;10.25;78.28;95045.14;1731560;83;20560;-63
2021/05/18 16:51:13;;;;;;;;;;;;;;;10.23;77.12;95046.52;1731662;83;20163;-63
2021/05/18 16:53:41;;;;;;;;;;;;;;;10.25;77.44;95042.50;1731839;83;20152;-63
2021/05/18 16:56:07;;;;;;;;;;;;;;;10.27;78.17;95045.97;1731331;83;20163;-63
2021/05/18 16:58:35;;;;;;;;;;;;;;;10.26;77.96;95046.44;1731645;83;20235;-63
2021/05/18 17:01:03;;;;;;;;;;;;;;;10.22;78.59;95038.17;1701095;83;20140;-63
2021/05/18 17:03:29;;;;;;;;;;;;;;;10.27;78.02;95049.93;1731414;83;20480;-63
2021/05/18 17:05:55;;;;;;;;;;;;;;;10.28;78.63;95051.68;1731842;83;20179;-63
2021/05/18 17:08:21;;;;;;;;;;;;;;;10.29;78.51;95052.97;1694784;85;20158;-63
2021/05/18 17:10:48;;;;;;;;;;;;;;;10.12;78.05;95053.82;1694530;85;20531;-63
2021/05/18 17:13:14;;;;;;;;;;;;;;;10.10;78.16;95056.48;1694820;85;20150;-63
2021/05/18 17:15:41;;;;;;;;;;;;;;;10.04;78.63;95047.42;1694669;85;20154;-63
2021/05/18 17:18:07;;;;;;;;;;;;;;;9.97;79.03;95059.88;1694658;85;20163;-63
2021/05/18 17:20:36;;;;;;;;;;;;;;;9.96;79.27;95057.30;1694881;85;20194;-63
2021/05/18 17:23:03;;;;;;;;;;;;;;;9.94;79.45;95063.06;1694589;85;20170;-63
2021/05/18 17:25:30;;;;;;;;;;;;;;;9.97;79.64;95062.98;1694551;85;20158;-63
2021/05/18 17:27:56;;;;;;;;;;;;;;;9.99;79.54;95070.40;1694893;85;20174;-63
2021/05/18 17:30:25;;;;;;;;;;;;;;;10.01;79.07;95069.91;1694637;85;20155;-63
2021/05/18 17:32:53;;;;;;;;;;;;;;;10.02;79.07;95070.77;1694781;85;20130;-63
2021/05/18 17:35:20;;;;;;;;;;;;;;;9.99;79.28;95071.72;1681010;84;20149;-63
2021/05/18 17:37:46;;;;;;;;;;;;;;;9.93;79.39;95075.83;1671008;86;20156;-63
2021/05/18 17:40:14;;;;;;;;;;;;;;;9.88;79.26;95076.40;1671099;86;20168;-63
2021/05/18 17:42:41;;;;;;;;;;;;;;;9.87;78.21;95072.88;1671228;86;20198;-63
2021/05/18 17:45:12;;;;;;;;;;;;;;;9.83;78.21;95070.37;1670999;86;20170;-63
2021/05/18 17:47:39;;;;;;;;;;;;;;;9.85;78.14;95073.39;1671147;86;20173;-63
2021/05/18 17:50:08;;;;;;;;;;;;;;;9.88;77.94;95065.86;1671166;86;20168;-62
2021/05/18 17:52:35;;;;;;;;;;;;;;;9.88;78.33;95068.49;1671124;86;20209;-63
2021/05/18 17:55:01;;;;;;;;;;;;;;;9.91;78.74;95078.49;1671148;86;20196;-62